Data for 09/30/2015

Time Sea-Level Adjusted Pressure Absolute Pressure Temperature Relative Humidity Dew Point   
(mb) (inHg) (mb) (inHg) (C) (F) (%) (C) (F)
00:05 1020 30.12 849 25.07 11.9 53.4 34 -3.6 25.6
00:10 1020 30.12 849 25.07 11.9 53.4 34 -3.5 25.7
00:15 1020 30.12 849 25.07 11.7 53.1 34 -3.6 25.6
00:20 1020 30.12 849 25.07 11.6 52.9 35 -3.4 25.9
00:25 1020 30.12 849 25.07 11.5 52.7 36 -3 26.6
00:30 1020 30.12 849 25.07 11 51.7 37 -3.2 26.2
00:35 1020 30.12 849 25.07 11 51.7 35 -3.7 25.3
00:40 1020 30.12 849 25.07 11.3 52.3 34 -3.9 25
00:45 1020 30.12 849 25.07 11.6 52.9 32 -4.3 24.2
00:50 1020 30.12 849 25.07 12.2 54 32 -3.9 25
00:55 1020 30.12 849 25.07 12 53.6 34 -3.4 25.9
01:00 1020 30.12 849 25.07 11.3 52.3 36 -3.3 26
01:05 1020 30.12 849 25.07 11 51.8 36 -3.4 25.8
01:10 1020 30.12 849 25.07 11.1 51.9 35 -3.7 25.4
01:15 1020 30.12 849 25.07 11.4 52.5 35 -3.7 25.4
01:20 1020 30.12 849 25.07 11.4 52.5 35 -3.4 25.9
01:25 1020 30.12 849 25.07 11.4 52.5 34 -3.9 25
01:30 1020 30.12 849 25.07 11.4 52.4 36 -3.1 26.5
01:35 1020 30.12 849 25.07 10.9 51.5 36 -3.5 25.8
01:40 1020 30.12 849 25.07 11.1 52 36 -3.5 25.7
01:45 1020 30.12 849 25.07 11.3 52.4 34 -4.1 24.7
01:50 1020 30.12 849 25.07 11.4 52.5 34 -3.7 25.4
01:55 1020 30.12 849 25.07 11.3 52.3 35 -3.7 25.4
02:00 1020 30.12 849 25.07 11.1 51.9 37 -3.1 26.5
02:05 1020 30.12 849 25.07 10.5 50.9 38 -3.3 26.1
02:10 1020 30.12 849 25.07 10.5 50.9 37 -3.7 25.4
02:15 1020 30.12 849 25.07 10.7 51.3 35 -4.1 24.7
02:20 1020 30.12 849 25.07 11.1 51.9 34 -4.1 24.6
02:25 1020 30.12 849 25.07 11 51.8 36 -3.6 25.6
02:30 1020 30.12 849 25.07 10.7 51.2 36 -3.6 25.5
02:35 1020 30.12 849 25.07 10.5 50.8 38 -3.4 25.9
02:40 1020 30.12 849 25.07 10.2 50.3 38 -3.6 25.6
02:45 1020 30.12 849 25.07 10 49.9 38 -3.5 25.6
02:50 1020 30.12 849 25.07 10.1 50.2 37 -4 24.9
02:55 1020 30.12 849 25.07 10.5 50.9 36 -4.1 24.7
03:00 1020 30.12 849 25.07 10.7 51.2 35 -4.1 24.6
03:05 1020 30.12 849 25.07 10.8 51.4 35 -4.2 24.4
03:10 1020 30.12 849 25.07 10.9 51.5 34 -4.2 24.4
03:15 1020 30.12 849 25.07 10.8 51.5 35 -3.8 25.1
03:20 1020 30.12 849 25.07 10.7 51.2 35 -4 24.8
03:25 1020 30.12 849 25.07 10.5 50.9 36 -3.7 25.3
03:30 1020 30.12 849 25.07 10.5 50.9 35 -4.4 24.1
03:35 1020 30.12 849 25.07 11.2 52.1 33 -4.3 24.3
03:40 1020 30.12 849 25.07 11.1 52 34 -4.1 24.6
03:45 1020 30.12 849 25.07 11 51.8 34 -4.3 24.2
03:50 1020 30.12 849 25.07 11.1 52.1 33 -4.4 24.1
03:55 1020 30.12 849 25.07 11.4 52.5 32 -4.5 23.9
04:00 1020 30.12 849 25.07 11.6 52.9 31 -4.8 23.4
04:05 1020 30.12 849 25.07 12 53.6 31 -4.6 23.7
04:10 1020 30.12 849 25.07 11.9 53.4 32 -4.3 24.3
04:15 1020 30.12 849 25.07 11.7 53 32 -4.5 23.9
04:20 1020 30.12 849 25.07 11.4 52.5 32 -4.7 23.5
04:25 1020 30.12 849 25.07 11.7 53.1 31 -4.6 23.7
04:30 1020 30.12 849 25.07 11.8 53.2 32 -4.5 23.9
04:35 1020 30.12 849 25.07 11.6 52.9 32 -4.6 23.7
04:40 1020 30.12 849 25.07 11.5 52.7 32 -4.5 23.9
04:45 1020 30.12 849 25.07 11.3 52.3 33 -4.2 24.4
04:50 1020 30.12 849 25.07 10.7 51.3 35 -4 24.8
04:55 1020 30.12 849 25.07 10.4 50.6 36 -3.9 24.9
05:00 1020 30.12 849 25.07 10.3 50.5 36 -4.2 24.5
05:05 1020 30.12 849 25.07 10.3 50.5 36 -4.2 24.5
05:10 1020 30.12 849 25.07 10.2 50.4 36 -4.2 24.5
05:15 1020 30.12 849 25.07 10.1 50.2 37 -3.9 25
05:20 1020 30.12 849 25.07 9.9 49.8 38 -3.8 25.2
05:25 1020 30.12 849 25.07 9.8 49.6 37 -4.1 24.5
05:30 1020 30.12 849 25.07 9.9 49.8 38 -3.7 25.3
05:35 1020 30.12 849 25.07 9.7 49.4 39 -3.6 25.6
05:40 1020 30.12 849 25.07 10 50 34 -5.1 22.9
05:45 1020 30.12 849 25.07 10.8 51.4 38 -2.8 26.9
05:50 1020 30.12 849 25.07 9.5 49.2 39 -3.7 25.4
05:55 1020 30.12 849 25.07 10.2 50.4 36 -4.2 24.4
06:00 1020 30.12 849 25.07 10.5 50.9 37 -3.5 25.8
06:05 1020 30.12 849 25.07 9.9 49.9 38 -3.6 25.5
06:10 1020 30.12 849 25.07 9.6 49.2 41 -2.8 26.9
06:15 1020 30.12 849 25.07 8.9 48 45 -2.4 27.7
06:20 1020 30.12 850 25.1 9.4 48.9 40 -3.4 25.9
06:25 1020 30.12 850 25.1 9.4 49 41 -3.2 26.2
06:30 1020 30.12 850 25.1 9.3 48.8 42 -2.9 26.8
06:35 1021 30.15 850 25.1 9 48.3 43 -2.9 26.8
06:40 1021 30.15 850 25.1 9.1 48.4 38 -4.4 24.1
06:45 1021 30.15 850 25.1 9.4 48.9 45 -1.9 28.5
06:50 1021 30.15 850 25.1 8.4 47.1 45 -2.7 27.1
06:55 1021 30.15 850 25.1 8.2 46.8 47 -2.3 27.8
07:00 1021 30.15 850 25.1 7.9 46.3 48 -2.5 27.6
07:05 1021 30.15 850 25.1 8.2 46.7 47 -2.4 27.6
07:10 1021 30.15 850 25.1 8.2 46.8 47 -2.5 27.5
07:15 1021 30.15 850 25.1 8.8 47.8 43 -3 26.7
07:20 1021 30.15 850 25.1 9.3 48.7 42 -2.9 26.8
07:25 1021 30.15 850 25.1 9.6 49.3 42 -2.8 26.9
07:30 1021 30.15 850 25.1 9.9 49.8 41 -2.6 27.3
07:35 1021 30.15 850 25.1 10.1 50.2 40 -2.7 27.2
07:40 1021 30.15 850 25.1 10.3 50.6 41 -2.3 27.9
07:45 1021 30.15 850 25.1 10.8 51.5 40 -2.1 28.2
07:50 1021 30.15 850 25.1 11.1 52 40 -1.8 28.8
07:55 1021 30.15 850 25.1 11.5 52.8 39 -2 28.4
08:00 1021 30.15 850 25.1 12 53.5 39 -1.5 29.3
08:05 1021 30.15 850 25.1 12.4 54.3 37 -1.9 28.6
08:10 1021 30.15 850 25.1 13.1 55.5 35 -2 28.4
08:15 1021 30.15 850 25.1 13.5 56.3 35 -1.8 28.8
08:20 1021 30.15 850 25.1 13.6 56.5 35 -1.6 29.1
08:25 1021 30.15 850 25.1 14.4 57.9 32 -2.1 28.2
08:30 1021 30.15 850 25.1 15.1 59.2 30 -2.5 27.5
08:35 1021 30.15 850 25.1 15.5 59.8 31 -1.4 29.4
08:40 1021 30.15 850 25.1 15.7 60.3 28 -2.5 27.5
08:45 1021 30.15 850 25.1 15.7 60.3 27 -3.3 26
08:50 1021 30.15 850 25.1 15.5 59.8 27 -3.4 25.8
08:55 1021 30.15 850 25.1 15.6 60.1 27 -3.4 25.9
09:00 1021 30.15 850 25.1 15.8 60.4 27 -3 26.6
09:05 1021 30.15 850 25.1 16.3 61.4 27 -2.7 27.2
09:10 1021 30.15 850 25.1 16.7 62 27 -2.5 27.4
09:15 1021 30.15 850 25.1 16.5 61.7 28 -2 28.4
09:20 1021 30.15 850 25.1 16.8 62.2 27 -2.4 27.6
09:25 1021 30.15 850 25.1 16.7 62 27 -2.5 27.6
09:30 1021 30.15 850 25.1 17.2 62.9 27 -1.9 28.6
09:35 1021 30.15 850 25.1 17.6 63.6 26 -2.2 28.1
09:40 1021 30.15 850 25.1 17.4 63.3 27 -1.5 29.4
09:45 1021 30.15 850 25.1 17 62.6 27 -2.1 28.2
09:50 1021 30.15 850 25.1 17.3 63.2 25 -2.7 27.2
09:55 1021 30.15 850 25.1 18.2 64.7 25 -2.1 28.2
10:00 1021 30.15 850 25.1 18 64.5 25 -2.3 27.8
10:05 1021 30.15 850 25.1 18.2 64.7 26 -1.6 29.2
10:10 1021 30.15 850 25.1 18.6 65.4 24 -2.2 28.1
10:15 1021 30.15 850 25.1 19 66.2 24 -1.8 28.8
10:20 1021 30.15 850 25.1 19.3 66.7 24 -1.7 29
10:25 1021 30.15 850 25.1 19.5 67 24 -1.4 29.4
10:30 1021 30.15 850 25.1 18.9 66.1 23 -2.3 27.9
10:35 1021 30.15 850 25.1 19 66.3 25 -1.2 29.9
10:40 1021 30.15 850 25.1 19.3 66.7 24 -1.6 29
10:45 1021 30.15 850 25.1 19.2 66.6 23 -2.1 28.2
10:50 1021 30.15 850 25.1 19.7 67.4 25 -1 30.3
10:55 1021 30.15 850 25.1 19.3 66.7 23 -2.1 28.2
11:00 1021 30.15 850 25.1 19.3 66.8 24 -1.5 29.2
11:05 1021 30.15 850 25.1 19.4 67 23 -2 28.4
11:10 1021 30.15 850 25.1 20.3 68.5 22 -1.9 28.6
11:15 1021 30.15 850 25.1 20.5 68.9 22 -1.5 29.3
11:20 1021 30.15 850 25.1 20.9 69.6 21 -1.9 28.5
11:25 1021 30.15 850 25.1 20.2 68.3 22 -2 28.4
11:30 1021 30.15 850 25.1 20.2 68.4 22 -2 28.4
11:35 1021 30.15 850 25.1 20.5 68.9 22 -1.5 29.3
11:40 1021 30.15 850 25.1 21.3 70.3 22 -1.1 30
11:45 1021 30.15 850 25.1 21 69.7 22 -1.6 29.1
11:50 1021 30.15 850 25.1 21.7 71.1 21 -1.6 29.1
11:55 1021 30.15 850 25.1 22.4 72.4 18 -2.7 27.1
12:00 1021 30.15 850 25.1 22.2 71.9 20 -1.6 29
12:05 1021 30.15 850 25.1 21.5 70.7 21 -1.8 28.8
12:10 1021 30.15 850 25.1 21.5 70.6 20 -2.4 27.7
12:15 1020 30.12 850 25.1 21.8 71.2 19 -2.5 27.5
12:20 1020 30.12 850 25.1 22.8 73 18 -2.5 27.5
12:25 1020 30.12 849 25.07 22.8 73.1 20 -1.4 29.4
12:30 1020 30.12 849 25.07 23.1 73.6 18 -2.3 27.8
12:35 1020 30.12 849 25.07 24 75.1 17 -2.8 27
12:40 1020 30.12 849 25.07 24.1 75.4 17 -2.2 28
12:45 1020 30.12 849 25.07 23.5 74.4 17 -2.4 27.6
12:50 1020 30.12 849 25.07 23.7 74.7 17 -2.9 26.8
12:55 1020 30.12 849 25.07 24 75.3 17 -2.2 28
13:00 1020 30.12 849 25.07 23.1 73.7 17 -2.7 27.2
13:05 1020 30.12 849 25.07 24.1 75.4 16 -3.5 25.8
13:10 1020 30.12 849 25.07 24.7 76.5 15 -3.5 25.7
13:15 1020 30.12 849 25.07 25.2 77.3 15 -3.2 26.3
13:20 1020 30.12 849 25.07 25.2 77.4 15 -3 26.7
13:25 1020 30.12 849 25.07 25.5 77.9 15 -2.6 27.3
13:30 1020 30.12 849 25.07 25.6 78 15 -2.9 26.8
13:35 1020 30.12 849 25.07 25.7 78.2 16 -1.7 29
13:40 1020 30.12 849 25.07 26.2 79.1 15 -2.4 27.7
13:45 1020 30.12 849 25.07 25.4 77.8 15 -3.2 26.2
13:50 1020 30.12 849 25.07 25.2 77.4 15 -3.3 26.1
13:55 1020 30.12 849 25.07 24.5 76 17 -1.8 28.8
14:00 1019 30.09 849 25.07 25.1 77.2 14 -4.5 23.9
14:05 1019 30.09 849 25.07 25.8 78.4 12 -5.3 22.4
14:10 1019 30.09 849 25.07 25.6 78.1 12 -5.3 22.5
14:15 1019 30.09 849 25.07 25.5 77.9 13 -5.1 22.9
14:20 1019 30.09 849 25.07 25.8 78.5 13 -4.3 24.2
14:25 1019 30.09 849 25.07 25.6 78 14 -3.9 24.9
14:30 1019 30.09 848 25.04 25.4 77.6 13 -4.7 23.5
14:35 1019 30.09 848 25.04 25.4 77.7 13 -4.9 23.2
14:40 1019 30.09 848 25.04 25 77 14 -4.2 24.5
14:45 1019 30.09 848 25.04 25.2 77.3 14 -4.4 24.1
14:50 1019 30.09 848 25.04 25.5 77.8 13 -4.6 23.7
14:55 1019 30.09 848 25.04 25.7 78.2 13 -4.1 24.7
15:00 1019 30.09 848 25.04 25.7 78.3 13 -4.1 24.6
15:05 1019 30.09 848 25.04 26 78.7 13 -4.8 23.4
15:10 1019 30.09 848 25.04 25.2 77.4 13 -5.2 22.6
15:15 1019 30.09 848 25.04 25.3 77.5 12 -5.6 21.9
15:20 1019 30.09 849 25.07 25.4 77.7 13 -5.3 22.5
15:25 1019 30.09 849 25.07 25.9 78.6 12 -5.4 22.3
15:30 1019 30.09 848 25.04 25.7 78.3 13 -4.2 24.4
15:35 1019 30.09 848 25.04 25.5 77.8 13 -4.5 23.9
15:40 1019 30.09 848 25.04 25.5 77.8 13 -4.4 24
15:45 1019 30.09 848 25.04 25.3 77.5 13 -4.9 23.1
15:50 1019 30.09 848 25.04 24.6 76.2 13 -5.3 22.4
15:55 1019 30.09 848 25.04 24.2 75.6 14 -5.2 22.6
16:00 1019 30.09 848 25.04 24.8 76.7 13 -5 23
16:05 1019 30.09 848 25.04 24.4 76 13 -5.4 22.2
16:10 1019 30.09 848 25.04 24.1 75.4 14 -5.3 22.5
16:15 1019 30.09 848 25.04 23.8 74.9 14 -5.2 22.7
16:20 1019 30.09 848 25.04 24.6 76.4 13 -5.2 22.6
16:25 1019 30.09 848 25.04 24.7 76.5 14 -4.4 24.1
16:30 1019 30.09 848 25.04 24.2 75.5 14 -4.5 24
16:35 1019 30.09 848 25.04 24.2 75.5 14 -4.4 24.1
16:40 1019 30.09 848 25.04 24.1 75.3 14 -4.6 23.7
16:45 1019 30.09 848 25.04 24 75.2 15 -3.7 25.3
16:50 1019 30.09 848 25.04 24 75.2 15 -4.1 24.7
16:55 1019 30.09 848 25.04 24.2 75.6 14 -4.8 23.4
17:00 1019 30.09 848 25.04 24.3 75.8 14 -4.3 24.2
17:05 1019 30.09 848 25.04 24.1 75.5 14 -4.5 23.9
17:10 1019 30.09 848 25.04 24.2 75.5 15 -4.3 24.3
17:15 1019 30.09 848 25.04 24.2 75.6 15 -4 24.8
17:20 1019 30.09 848 25.04 24 75.2 16 -3.5 25.8
17:25 1019 30.09 848 25.04 23.7 74.7 17 -2.8 27
17:30 1019 30.09 848 25.04 23.6 74.4 18 -2.1 28.2
17:35 1019 30.09 848 25.04 23 73.3 25 2.2 36
17:40 1019 30.09 848 25.04 21.4 70.5 26 1.1 34.1
17:45 1019 30.09 848 25.04 20.9 69.5 28 1.7 35
17:50 1019 30.09 848 25.04 20.5 68.8 29 1.9 35.3
17:55 1019 30.09 848 25.04 20.3 68.5 29 1.7 35
18:00 1019 30.09 848 25.04 19.9 67.8 30 1.8 35.2
18:05 1019 30.09 848 25.04 19.4 66.9 30 1.7 35.1
18:10 1019 30.09 848 25.04 19.2 66.5 29 1.1 33.9
18:15 1019 30.09 848 25.04 19 66.2 31 1.4 34.6
18:20 1019 30.09 848 25.04 18.6 65.4 29 0.6 33
18:25 1019 30.09 848 25.04 18.3 64.9 30 0.5 32.9
18:30 1019 30.09 848 25.04 17.8 64.1 34 2 35.5
18:35 1019 30.09 848 25.04 17 62.6 35 1.6 35
18:40 1019 30.09 848 25.04 16.8 62.2 34 0.9 33.5
18:45 1019 30.09 848 25.04 16.7 62 32 -0 31.9
18:50 1019 30.09 848 25.04 16.9 62.4 30 -0.7 30.7
18:55 1019 30.09 848 25.04 17.1 62.8 30 -0.3 31.4
19:00 1019 30.09 848 25.04 16.9 62.5 29 -1.1 30
19:05 1019 30.09 848 25.04 17.1 62.8 28 -1.4 29.5
19:10 1019 30.09 849 25.07 17.5 63.5 26 -1.9 28.7
19:15 1019 30.09 849 25.07 17.5 63.5 27 -1.3 29.6
19:20 1019 30.09 849 25.07 17.1 62.7 28 -1.5 29.3
19:25 1019 30.09 849 25.07 17 62.6 28 -1.7 28.9
19:30 1019 30.09 849 25.07 17.2 62.9 27 -1.7 28.9
19:35 1019 30.09 849 25.07 17.1 62.8 28 -1.4 29.5
19:40 1020 30.12 849 25.07 16.8 62.3 29 -1.2 29.8
19:45 1020 30.12 849 25.07 16.7 62.1 29 -1.2 29.9
19:50 1020 30.12 849 25.07 16.6 61.8 30 -0.9 30.5
19:55 1020 30.12 849 25.07 16.6 61.9 29 -1.4 29.5
20:00 1020 30.12 849 25.07 16.7 62.1 29 -1.4 29.5
20:05 1020 30.12 849 25.07 17.2 63 26 -2.3 27.8
20:10 1020 30.12 849 25.07 17.6 63.7 25 -2.6 27.3
20:15 1020 30.12 849 25.07 18.1 64.6 24 -2.9 26.7
20:20 1020 30.12 849 25.07 18.4 65.1 23 -3 26.7
20:25 1020 30.12 849 25.07 18.6 65.5 22 -3.4 25.8
20:30 1019 30.09 849 25.07 18.9 66.1 21 -3.6 25.4
20:35 1019 30.09 849 25.07 19.1 66.4 21 -3.8 25.2
20:40 1019 30.09 849 25.07 19.3 66.7 20 -4 24.7
20:45 1019 30.09 849 25.07 19.3 66.7 20 -4.1 24.6
20:50 1019 30.09 849 25.07 19.4 66.9 20 -4.3 24.2
20:55 1019 30.09 849 25.07 19.5 67.1 19 -4.4 24.1
21:00 1019 30.09 849 25.07 19.5 67.1 19 -4.5 23.9
21:05 1019 30.09 849 25.07 19.6 67.3 19 -4.7 23.6
21:10 1019 30.09 849 25.07 19.7 67.5 18 -4.9 23.2
21:15 1019 30.09 849 25.07 19.6 67.4 19 -4.3 24.3
21:20 1020 30.12 849 25.07 19.4 66.8 19 -4.7 23.6
21:25 1020 30.12 849 25.07 19.4 66.9 19 -4.8 23.4
21:30 1020 30.12 849 25.07 19.6 67.3 18 -4.9 23.2
21:35 1020 30.12 849 25.07 19.6 67.3 19 -4.8 23.4
21:40 1020 30.12 849 25.07 19.3 66.7 20 -4.1 24.7
21:45 1020 30.12 849 25.07 18.8 65.9 20 -4.5 24
21:50 1020 30.12 849 25.07 19 66.2 19 -4.8 23.4
21:55 1020 30.12 849 25.07 19.3 66.7 19 -5 23.1
22:00 1020 30.12 849 25.07 19.3 66.8 19 -4.7 23.5
22:05 1020 30.12 849 25.07 19.1 66.4 20 -4.4 24.1
22:10 1020 30.12 849 25.07 18.8 65.9 20 -4.5 23.9
22:15 1020 30.12 849 25.07 18.7 65.7 20 -4.4 24
22:20 1020 30.12 849 25.07 18.6 65.5 20 -4.6 23.7
22:25 1020 30.12 849 25.07 18.6 65.4 20 -4.4 24
22:30 1020 30.12 849 25.07 18.4 65.1 21 -4.5 23.9
22:35 1020 30.12 849 25.07 18.4 65.1 20 -4.6 23.7
22:40 1020 30.12 849 25.07 18.3 65 21 -4.5 23.9
22:45 1020 30.12 849 25.07 18.3 64.9 21 -4.6 23.7
22:50 1020 30.12 849 25.07 18.2 64.7 21 -4.6 23.7
22:55 1020 30.12 849 25.07 18.2 64.7 20 -4.8 23.4
23:00 1020 30.12 849 25.07 18.2 64.7 21 -4.7 23.6
23:05 1020 30.12 849 25.07 18.1 64.6 21 -4.7 23.5
23:10 1020 30.12 849 25.07 18.1 64.6 20 -4.8 23.3
23:15 1020 30.12 849 25.07 18.1 64.6 20 -5.1 22.9
23:20 1020 30.12 849 25.07 17.9 64.2 21 -4.7 23.6
23:25 1020 30.12 849 25.07 17.8 64.1 21 -4.9 23.2
23:30 1020 30.12 849 25.07 17.8 64 21 -5 23
23:35 1020 30.12 849 25.07 17.6 63.8 21 -4.9 23.2
23:40 1020 30.12 849 25.07 17.6 63.8 21 -5.1 22.8
23:45 1020 30.12 849 25.07 17.7 63.8 21 -5.1 22.8
23:50 1020 30.12 849 25.07 17.7 63.9 20 -5.3 22.4
23:55 1020 30.12 849 25.07 17.8 64 20 -5.4 22.4
24:00 1020 30.12 849 25.07 17.8 64 20 -5.3 22.5